Time;durP1;ratioP1;P1;durP2;ratioP2;P2;SDS_P1;SDS_P2;PMS_P1;PMS_P2;Temp;Humidity;BMP_temperature;BMP_pressure;BME280_temperature;BME280_humidity;BME280_pressure;Samples;Min_cycle;Max_cycle;Signal;HPM_P1;HPM_P2
2023/05/09 00:01:42;;;;;;;;;;;13.40;36.90;;;12.29;37.62;102084.50;12250786;19;19923;-85
2023/05/09 00:05:45;;;;;;;;;;;13.40;36.90;;;12.26;37.72;102090.72;12250579;19;19923;-84
2023/05/09 00:09:46;;;;;;;;;;;13.40;36.90;;;12.38;37.60;102100.69;12250231;19;19923;-85
2023/05/09 00:13:49;;;;;;;;;;;13.40;37.30;;;12.02;37.73;102045.41;12252392;19;19918;-84
2023/05/09 00:17:51;;;;;;;;;;;13.40;37.00;;;12.33;37.87;102101.78;12246061;19;19925;-84
2023/05/09 00:21:53;;;;;;;;;;;13.40;37.10;;;11.95;37.80;102043.94;12251976;19;19932;-84
2023/05/09 00:25:55;;;;;;;;;;;13.30;37.10;;;12.20;37.73;102101.41;12247252;19;19926;-85
2023/05/09 00:29:57;;;;;;;;;;;13.30;37.00;;;12.13;37.88;102100.81;12251340;19;20333;-84
2023/05/09 00:33:58;;;;;;;;;;;13.20;37.00;;;11.95;37.88;102075.34;12246422;19;19922;-84
2023/05/09 00:38:00;;;;;;;;;;;13.20;37.00;;;11.70;37.97;102054.50;12239928;19;19957;-84
2023/05/09 00:42:02;;;;;;;;;;;13.00;37.00;;;11.94;37.94;102105.94;12245097;19;19911;-84
2023/05/09 00:46:04;;;;;;;;;;;13.00;37.20;;;11.65;38.11;102053.81;12243674;19;19915;-84
2023/05/09 00:50:06;;;;;;;;;;;13.00;37.20;;;11.70;38.00;102064.97;12246950;19;19971;-84
2023/05/09 00:54:08;;;;;;;;;;;12.90;37.40;;;11.71;38.25;102088.44;12246579;19;19914;-84
2023/05/09 00:58:10;;;;;;;;;;;12.80;38.00;;;11.51;38.32;102070.88;12245038;19;20358;-84
2023/05/09 01:02:11;;;;;;;;;;;12.70;37.40;;;11.51;38.24;102073.50;12247236;19;19940;-84
2023/05/09 01:06:40;;;;;;;;;;;12.70;37.60;;;11.43;38.46;102059.84;12243977;19;19915;-84
2023/05/09 01:10:59;;;;;;;;;;;12.70;38.10;;;11.45;38.42;102065.91;12244701;19;19903;-84
2023/05/09 01:15:11;;;;;;;;;;;12.60;37.80;;;11.51;38.56;102076.13;12244015;19;19974;-84
2023/05/09 01:19:35;;;;;;;;;;;12.60;37.90;;;11.51;38.36;102067.41;12243496;19;19918;-85
2023/05/09 01:23:54;;;;;;;;;;;12.60;38.00;;;11.53;38.49;102065.63;12242164;19;19936;-84
2023/05/09 01:28:20;;;;;;;;;;;12.60;37.90;;;11.55;38.54;102060.31;12240673;19;19918;-84
2023/05/09 01:32:27;;;;;;;;;;;12.70;38.20;;;11.55;38.60;102047.22;12241952;19;19922;-84
2023/05/09 01:36:31;;;;;;;;;;;12.70;38.00;;;11.57;38.57;102048.88;12238234;19;20329;-85
2023/05/09 01:40:34;;;;;;;;;;;12.70;38.00;;;11.58;38.64;102052.34;12243249;19;19922;-84
2023/05/09 01:44:38;;;;;;;;;;;12.80;38.00;;;11.56;38.68;102030.59;12239392;19;19915;-85
2023/05/09 01:48:40;;;;;;;;;;;12.80;37.80;;;11.45;38.84;102007.47;12242887;19;19914;-84
2023/05/09 01:52:46;;;;;;;;;;;12.90;38.10;;;11.68;38.85;102051.94;12253817;19;19958;-85
2023/05/09 01:56:48;;;;;;;;;;;12.90;37.90;;;11.74;38.93;102050.84;12249757;19;19948;-84
2023/05/09 02:00:50;;;;;;;;;;;13.00;38.30;;;11.78;38.88;102041.13;12254269;19;19926;-84
2023/05/09 02:04:54;;;;;;;;;;;13.00;38.10;;;11.79;38.72;102038.44;12250181;19;19922;-84
2023/05/09 02:08:56;;;;;;;;;;;13.00;37.70;;;11.74;38.87;102029.91;12253115;19;19919;-84
2023/05/09 02:13:00;;;;;;;;;;;13.10;37.70;;;11.83;38.94;102034.78;12253133;19;19940;-85
2023/05/09 02:17:05;;;;;;;;;;;13.10;37.60;;;11.79;38.81;102033.19;12049603;19;3911525;-84
2023/05/09 02:21:06;;;;;;;;;;;13.10;37.70;;;11.79;38.85;102016.63;12254630;19;19926;-85
2023/05/09 02:25:10;;;;;;;;;;;13.10;37.60;;;11.75;38.77;102021.16;12251317;19;19922;-85
2023/05/09 02:29:16;;;;;;;;;;;13.10;37.60;;;11.82;38.85;102024.38;12254058;19;19915;-85
2023/05/09 02:33:18;;;;;;;;;;;13.20;37.60;;;11.81;38.89;102031.38;12255861;19;20297;-86
2023/05/09 02:37:21;;;;;;;;;;;13.20;37.40;;;11.83;38.93;102034.78;12247249;19;20330;-85
2023/05/09 02:41:26;;;;;;;;;;;13.30;37.70;;;11.91;38.99;102038.00;12253453;19;19911;-85
2023/05/09 02:45:28;;;;;;;;;;;13.20;37.40;;;11.90;38.91;102040.66;12251997;19;19975;-85
2023/05/09 02:49:30;;;;;;;;;;;13.10;37.30;;;11.83;39.05;102020.84;12254662;19;20263;-85
2023/05/09 02:53:32;;;;;;;;;;;13.20;37.40;;;11.88;38.96;102042.47;12255237;19;19935;-85
2023/05/09 02:57:34;;;;;;;;;;;13.20;37.30;;;11.86;39.01;102037.31;12249887;19;19978;-85
2023/05/09 03:01:36;;;;;;;;;;;13.20;37.60;;;11.80;38.94;102037.53;12251691;19;19914;-85
2023/05/09 03:05:38;;;;;;;;;;;13.10;37.60;;;11.79;39.05;102038.44;12249648;19;20337;-85
2023/05/09 03:09:39;;;;;;;;;;;13.10;37.40;;;11.64;38.99;102010.25;12252808;19;20325;-85
2023/05/09 03:13:41;;;;;;;;;;;13.20;37.40;;;11.75;39.02;102036.84;12252533;19;19922;-85
2023/05/09 03:17:43;;;;;;;;;;;13.00;37.40;;;11.64;38.86;102031.19;12250340;19;19940;-84
2023/05/09 03:21:45;;;;;;;;;;;13.00;37.40;;;11.62;39.02;102030.38;12253069;19;19915;-85
2023/05/09 03:25:48;;;;;;;;;;;12.90;37.30;;;11.54;38.94;102020.22;12248600;19;19939;-85
2023/05/09 03:29:50;;;;;;;;;;;12.90;37.30;;;11.59;39.04;102043.59;12251533;19;19922;-85
2023/05/09 03:33:53;;;;;;;;;;;12.80;37.50;;;11.50;39.08;102029.94;12250689;19;19922;-85
2023/05/09 03:37:56;;;;;;;;;;;12.80;37.30;;;11.47;39.06;102029.19;12248190;19;19933;-85
2023/05/09 03:41:57;;;;;;;;;;;12.80;37.30;;;11.27;38.98;102009.88;12250209;19;19936;-84
2023/05/09 03:45:59;;;;;;;;;;;12.70;37.50;;;11.26;39.15;102023.88;12246606;19;19923;-85
2023/05/09 03:50:03;;;;;;;;;;;12.60;37.40;;;11.20;39.02;102025.84;12254259;19;20366;-85
2023/05/09 03:54:05;;;;;;;;;;;12.50;37.20;;;11.15;39.13;102025.16;12251240;19;20238;-84
2023/05/09 03:58:07;;;;;;;;;;;12.40;37.30;;;11.14;39.14;102033.94;12246423;19;19930;-84
2023/05/09 04:02:12;;;;;;;;;;;12.40;37.30;;;11.12;39.15;102033.13;12246929;19;20320;-85
2023/05/09 04:06:14;;;;;;;;;;;12.30;37.50;;;11.02;39.12;102024.78;12244925;19;19914;-85
2023/05/09 04:10:18;;;;;;;;;;;12.30;37.50;;;11.02;39.16;102020.41;12249120;19;19918;-85
2023/05/09 04:14:20;;;;;;;;;;;12.40;37.60;;;11.00;39.24;102019.59;12248009;19;19919;-85
2023/05/09 04:18:22;;;;;;;;;;;12.30;37.60;;;11.05;39.17;102024.66;12247852;19;20310;-85
2023/05/09 04:22:23;;;;;;;;;;;12.30;37.60;;;11.11;39.07;102034.03;12248481;19;19930;-85
2023/05/09 04:26:26;;;;;;;;;;;12.30;37.70;;;11.12;39.12;102035.75;12242811;19;19919;-85
2023/05/09 04:30:30;;;;;;;;;;;12.30;37.90;;;11.01;39.24;102017.81;12243403;19;20348;-84
2023/05/09 04:34:33;;;;;;;;;;;12.30;37.60;;;10.97;39.23;102005.78;12241045;19;19934;-85
2023/05/09 04:38:41;;;;;;;;;;;12.30;37.80;;;11.08;39.34;102035.84;12247837;19;19929;-85
2023/05/09 04:42:46;;;;;;;;;;;12.30;38.10;;;11.13;39.40;102029.63;12243892;19;19911;-84
2023/05/09 04:46:49;;;;;;;;;;;12.30;37.80;;;11.16;39.54;102032.97;12246204;19;19907;-85
2023/05/09 04:50:51;;;;;;;;;;;12.30;38.70;;;11.22;39.57;102018.81;12246526;19;19911;-85
2023/05/09 04:54:53;;;;;;;;;;;12.60;39.20;;;11.26;39.54;102017.78;12246804;19;19932;-85
2023/05/09 04:58:56;;;;;;;;;;;12.40;38.40;;;11.32;39.46;102012.34;12249227;19;19918;-84
2023/05/09 05:02:58;;;;;;;;;;;12.50;38.50;;;11.41;39.40;102014.59;12248652;19;20329;-85
2023/05/09 05:07:02;;;;;;;;;;;12.60;38.40;;;11.19;39.46;101964.03;12244884;19;19915;-85
2023/05/09 05:11:04;;;;;;;;;;;12.70;38.60;;;11.49;39.71;101996.84;12247264;19;19961;-85
2023/05/09 05:15:06;;;;;;;;;;;12.80;38.50;;;11.37;39.53;101967.69;12249387;19;19953;-85
2023/05/09 05:19:07;;;;;;;;;;;12.90;38.40;;;11.71;39.56;102009.94;12245268;19;19939;-85
2023/05/09 05:23:13;;;;;;;;;;;13.00;39.20;;;11.68;39.75;101975.19;12247714;19;20630;-85
2023/05/09 05:27:15;;;;;;;;;;;13.10;38.70;;;11.90;39.57;102002.22;12255920;19;19923;-85
2023/05/09 05:31:16;;;;;;;;;;;13.20;39.30;;;11.92;39.78;101992.56;12258118;19;20003;-85
2023/05/09 05:35:21;;;;;;;;;;;13.30;38.90;;;12.07;39.71;101990.22;12257886;19;19936;-85
2023/05/09 05:39:25;;;;;;;;;;;13.40;38.60;;;12.25;39.64;101989.47;12258901;19;19915;-85
2023/05/09 05:43:29;;;;;;;;;;;13.50;39.00;;;12.31;39.80;101978.75;12257555;19;19925;-85
2023/05/09 05:47:35;;;;;;;;;;;13.60;38.60;;;12.51;39.81;101983.13;12255752;19;19940;-85
2023/05/09 05:51:37;;;;;;;;;;;13.80;39.00;;;12.62;39.86;101980.88;12259024;19;19936;-85
2023/05/09 05:55:40;;;;;;;;;;;13.90;38.60;;;12.82;39.93;101979.16;12258167;19;19915;-86
2023/05/09 05:59:42;;;;;;;;;;;14.10;38.40;;;13.00;39.84;101980.13;12261072;19;20278;-85
2023/05/09 06:03:44;;;;;;;;;;;14.30;38.70;;;13.22;39.88;101985.22;12260111;19;20251;-85
2023/05/09 06:07:46;;;;;;;;;;;14.40;38.50;;;13.33;39.87;101982.97;12255373;19;19922;-85
2023/05/09 06:11:48;;;;;;;;;;;14.70;38.30;;;13.44;39.84;101977.22;12257892;19;20258;-85
2023/05/09 06:15:50;;;;;;;;;;;14.80;38.10;;;13.45;39.94;101948.31;12255974;19;19919;-85
2023/05/09 06:19:51;;;;;;;;;;;14.90;38.00;;;13.45;39.74;101935.19;12257594;19;20329;-85
2023/05/09 06:23:53;;;;;;;;;;;15.00;38.00;;;13.70;39.79;101950.59;12255865;19;19986;-85
2023/05/09 06:27:54;;;;;;;;;;;15.10;37.90;;;13.76;39.81;101938.09;12252751;19;19925;-85
2023/05/09 06:31:56;;;;;;;;;;;15.20;37.80;;;14.02;39.79;101956.03;12257834;19;19933;-84
2023/05/09 06:35:59;;;;;;;;;;;15.30;37.80;;;14.10;39.68;101953.03;12251928;19;19958;-85
2023/05/09 06:40:00;;;;;;;;;;;15.40;37.70;;;14.19;39.62;101941.22;12256572;19;20265;-85
2023/05/09 06:44:02;;;;;;;;;;;15.60;37.70;;;14.23;39.67;101926.97;12253285;19;19922;-85
2023/05/09 06:48:04;;;;;;;;;;;15.60;37.50;;;14.35;39.79;101932.47;12251764;19;19919;-85
2023/05/09 06:52:06;;;;;;;;;;;15.70;37.50;;;14.37;39.71;101914.84;12255732;19;19933;-85
2023/05/09 06:56:07;;;;;;;;;;;15.80;37.50;;;14.47;39.70;101916.97;12254156;19;19918;-84
2023/05/09 07:00:10;;;;;;;;;;;15.90;37.40;;;14.59;39.58;101922.47;12253384;19;19919;-86
2023/05/09 07:04:11;;;;;;;;;;;16.00;37.40;;;14.48;39.69;101893.25;12255719;19;19919;-84
2023/05/09 07:08:13;;;;;;;;;;;16.00;37.30;;;14.76;39.70;101912.84;12254493;19;20342;-85
2023/05/09 07:12:14;;;;;;;;;;;16.10;37.10;;;14.66;39.69;101885.34;12253937;19;19975;-85
2023/05/09 07:16:17;;;;;;;;;;;16.20;36.60;;;14.91;39.57;101887.50;12250124;19;19915;-85
2023/05/09 07:20:18;;;;;;;;;;;16.20;36.20;;;14.93;39.54;101875.97;12255673;19;19925;-85
2023/05/09 07:24:20;;;;;;;;;;;16.30;36.40;;;15.13;39.61;101874.00;12250903;19;19919;-84
2023/05/09 07:28:21;;;;;;;;;;;16.40;36.60;;;15.30;39.42;101875.69;12251143;19;20325;-85
2023/05/09 07:32:23;;;;;;;;;;;16.60;35.90;;;15.39;39.44;101865.50;12252253;19;20307;-85
2023/05/09 07:36:25;;;;;;;;;;;16.70;35.30;;;15.61;39.41;101853.72;12250939;19;19934;-85
2023/05/09 07:40:26;;;;;;;;;;;16.90;36.30;;;15.80;39.42;101862.25;12252727;19;20012;-85
2023/05/09 07:44:28;;;;;;;;;;;17.00;34.60;;;15.96;39.10;101851.66;12249595;19;19914;-84
2023/05/09 07:48:29;;;;;;;;;;;17.20;36.00;;;16.11;39.18;101845.44;12250868;19;20405;-85
2023/05/09 07:52:31;;;;;;;;;;;17.30;35.50;;;16.22;39.20;101822.88;12248445;19;19918;-84
2023/05/09 07:56:32;;;;;;;;;;;17.50;35.30;;;16.46;39.16;101831.06;12248511;19;20269;-84
2023/05/09 08:00:34;;;;;;;;;;;17.70;36.20;;;16.67;38.96;101829.72;12250313;19;20287;-84
2023/05/09 08:04:37;;;;;;;;;;;17.90;35.60;;;16.73;39.04;101799.47;12249637;19;19915;-85
2023/05/09 08:08:39;;;;;;;;;;;18.00;34.90;;;16.92;39.17;101801.78;12248801;19;20339;-85
2023/05/09 08:12:40;;;;;;;;;;;18.20;34.30;;;17.14;38.81;101820.56;12250990;19;19935;-85
2023/05/09 08:16:42;;;;;;;;;;;18.40;35.10;;;17.04;38.56;101777.25;12244546;19;20396;-85
2023/05/09 08:20:44;;;;;;;;;;;18.50;33.80;;;17.24;38.69;101792.63;12251387;19;20359;-85
2023/05/09 08:24:46;;;;;;;;;;;18.60;33.80;;;17.38;38.60;101796.13;12248085;19;19927;-86
2023/05/09 08:28:48;;;;;;;;;;;18.70;33.80;;;17.33;38.30;101792.94;12249524;19;19945;-85
2023/05/09 08:32:50;;;;;;;;;;;18.70;34.30;;;17.41;38.23;101772.16;12252400;19;19919;-85
2023/05/09 08:36:52;;;;;;;;;;;18.80;34.50;;;17.53;38.35;101775.78;12247355;19;19914;-84
2023/05/09 08:41:00;;;;;;;;;;;18.90;34.60;;;17.65;38.23;101770.50;12251840;19;19914;-84
2023/05/09 08:45:09;;;;;;;;;;;19.00;34.90;;;17.84;38.28;101779.84;12253609;19;19937;-84
2023/05/09 08:49:11;;;;;;;;;;;19.10;34.80;;;17.85;38.21;101749.84;12255423;19;19935;-84
2023/05/09 08:53:13;;;;;;;;;;;19.20;33.80;;;18.02;38.13;101775.06;12251434;19;19955;-84
2023/05/09 08:57:15;;;;;;;;;;;19.30;33.50;;;18.06;38.10;101761.53;12252427;19;20302;-84
2023/05/09 09:01:16;;;;;;;;;;;19.40;33.50;;;18.17;38.08;101744.91;12249534;19;19921;-84
2023/05/09 09:05:18;;;;;;;;;;;19.50;33.40;;;18.33;37.94;101752.59;12250083;19;19915;-84
2023/05/09 09:09:21;;;;;;;;;;;19.60;34.20;;;18.42;37.92;101728.13;12250621;19;19933;-84
2023/05/09 09:13:23;;;;;;;;;;;19.70;33.40;;;18.60;37.79;101739.16;12252645;19;20368;-84
2023/05/09 09:17:26;;;;;;;;;;;19.90;32.70;;;18.70;37.88;101742.00;12246540;19;20269;-84
2023/05/09 09:21:31;;;;;;;;;;;20.00;34.70;;;18.83;37.62;101740.16;12251402;19;19940;-84
2023/05/09 09:25:32;;;;;;;;;;;20.10;34.30;;;18.97;37.79;101717.97;12246307;19;21660;-86
2023/05/09 09:29:34;;;;;;;;;;;20.20;33.30;;;19.05;37.65;101726.19;12252337;19;19943;-85
2023/05/09 09:33:35;;;;;;;;;;;20.30;33.30;;;18.94;37.55;101702.31;12252130;19;19923;-85
2023/05/09 09:37:44;;;;;;;;;;;20.40;31.50;;;19.10;37.18;101717.91;12245270;19;19922;-86
2023/05/09 09:41:46;;;;;;;;;;;20.40;33.80;;;19.32;37.35;101733.84;12251106;19;20346;-86
2023/05/09 09:45:51;;;;;;;;;;;20.50;33.70;;;19.41;37.37;101741.06;12245606;19;19918;-85
2023/05/09 09:49:53;;;;;;;;;;;20.60;32.90;;;19.51;37.25;101722.69;12250301;19;20377;-85
2023/05/09 09:53:55;;;;;;;;;;;20.70;31.50;;;19.59;37.27;101720.28;12247963;19;19954;-86
2023/05/09 09:57:57;;;;;;;;;;;20.80;33.20;;;19.64;36.86;101704.03;12246574;19;19928;-85
2023/05/09 10:02:08;;;;;;;;;;;20.90;29.90;;;19.76;36.73;101711.03;12248405;19;19907;-85
2023/05/09 10:06:11;;;;;;;;;;;21.00;32.40;;;19.82;36.90;101691.16;12245189;19;19927;-86
2023/05/09 10:10:12;;;;;;;;;;;21.10;30.90;;;19.83;36.58;101685.75;12253247;19;20334;-85
2023/05/09 10:14:15;;;;;;;;;;;21.10;32.60;;;19.91;36.48;101681.66;12259645;19;19930;-85
2023/05/09 10:18:18;;;;;;;;;;;21.20;32.10;;;20.04;36.52;101687.66;12260626;19;19918;-86
2023/05/09 10:22:21;;;;;;;;;;;21.20;31.90;;;20.17;36.49;101683.06;12259692;19;19919;-85
2023/05/09 10:26:29;;;;;;;;;;;21.40;32.40;;;20.21;36.33;101662.44;12256408;19;19918;-86
2023/05/09 10:30:34;;;;;;;;;;;21.50;31.90;;;20.34;36.27;101647.19;12258224;19;19915;-85
2023/05/09 10:34:39;;;;;;;;;;;21.50;31.40;;;20.49;36.13;101645.91;12258485;19;19930;-86
2023/05/09 10:38:40;;;;;;;;;;;21.70;30.90;;;20.57;36.53;101647.16;12259432;19;19930;-85
2023/05/09 10:42:42;;;;;;;;;;;21.80;32.10;;;20.65;35.87;101652.66;12258503;19;20423;-85
2023/05/09 10:46:44;;;;;;;;;;;21.90;31.20;;;20.60;35.74;101630.97;12249547;19;19921;-85
2023/05/09 10:50:46;;;;;;;;;;;21.90;30.60;;;20.63;35.88;101625.38;12259234;19;19922;-85
2023/05/09 10:55:00;;;;;;;;;;;21.90;32.10;;;20.78;35.89;101630.25;12254333;19;19918;-86
2023/05/09 10:59:01;;;;;;;;;;;22.00;31.10;;;20.87;35.67;101641.06;12257605;19;19936;-86
2023/05/09 11:03:09;;;;;;;;;;;22.00;32.70;;;20.97;35.62;101634.03;12259490;19;19927;-86
2023/05/09 11:07:26;;;;;;;;;;;22.10;31.20;;;20.86;35.97;101588.97;12253142;19;19922;-86
2023/05/09 11:11:28;;;;;;;;;;;22.20;31.70;;;20.98;35.37;101595.88;12258412;19;19907;-85
2023/05/09 11:15:30;;;;;;;;;;;22.30;32.10;;;21.10;35.59;101604.63;12255748;19;20285;-85
2023/05/09 11:19:59;;;;;;;;;;;22.30;31.90;;;21.29;35.18;101609.19;12257453;19;20330;-86
2023/05/09 11:24:15;;;;;;;;;;;22.40;30.90;;;21.39;35.43;101596.81;12252943;19;19949;-85
2023/05/09 11:28:27;;;;;;;;;;;22.50;32.10;;;21.39;34.84;101572.91;12257656;19;19923;-86
2023/05/09 11:32:39;;;;;;;;;;;22.60;29.60;;;21.43;35.15;101593.72;12257580;19;19918;-86
2023/05/09 11:36:47;;;;;;;;;;;22.60;29.90;;;21.39;34.89;101571.09;12256352;19;19978;-85
2023/05/09 11:40:50;;;;;;;;;;;22.60;30.80;;;21.46;34.74;101568.72;12255684;19;19919;-85
2023/05/09 11:44:52;;;;;;;;;;;22.60;30.10;;;21.39;34.70;101541.00;12251634;19;19937;-85
2023/05/09 11:48:53;;;;;;;;;;;22.70;31.00;;;21.43;34.62;101550.38;12252094;19;19953;-86
2023/05/09 11:52:55;;;;;;;;;;;22.70;30.00;;;21.37;34.69;101519.00;12253360;19;20283;-85
2023/05/09 11:56:58;;;;;;;;;;;22.70;31.60;;;21.52;34.20;101533.63;12252238;19;19911;-86
2023/05/09 12:01:00;;;;;;;;;;;22.70;30.60;;;21.61;34.46;101532.81;12252027;19;20341;-86
2023/05/09 12:05:10;;;;;;;;;;;22.80;30.30;;;21.63;34.20;101514.91;12251259;19;19922;-85
2023/05/09 12:09:12;;;;;;;;;;;22.80;31.00;;;21.69;34.28;101516.19;12254313;19;19918;-86
2023/05/09 12:13:14;;;;;;;;;;;22.80;30.40;;;21.76;34.25;101516.44;12253248;19;19915;-85
2023/05/09 12:17:15;;;;;;;;;;;22.90;31.10;;;21.86;34.16;101510.16;12252321;19;19931;-85
2023/05/09 12:21:18;;;;;;;;;;;22.90;29.30;;;21.87;34.13;101493.25;12255170;19;19933;-85
2023/05/09 12:25:21;;;;;;;;;;;23.00;30.60;;;21.77;33.93;101468.47;12251982;19;20614;-85
2023/05/09 12:29:23;;;;;;;;;;;23.10;30.70;;;22.03;33.71;101495.31;12254229;19;20340;-84
2023/05/09 12:33:25;;;;;;;;;;;23.10;29.40;;;22.00;33.36;101492.13;12253175;19;19911;-84
2023/05/09 12:37:31;;;;;;;;;;;23.10;29.50;;;22.06;33.61;101478.25;12249878;19;19940;-84
2023/05/09 12:41:33;;;;;;;;;;;23.20;30.60;;;22.10;33.34;101475.16;12252952;19;20363;-85
2023/05/09 12:45:34;;;;;;;;;;;23.20;30.20;;;21.97;33.23;101444.53;12249450;19;19927;-85
2023/05/09 12:49:36;;;;;;;;;;;23.20;29.00;;;22.10;33.55;101448.56;12251294;19;19922;-84
2023/05/09 12:53:39;;;;;;;;;;;23.30;31.30;;;22.19;33.35;101443.41;12258710;19;19992;-86
2023/05/09 12:57:41;;;;;;;;;;;23.30;31.10;;;22.30;33.52;101451.22;12250230;19;19929;-86
2023/05/09 13:01:43;;;;;;;;;;;23.40;31.50;;;22.28;33.34;101438.06;12251567;19;19923;-86
2023/05/09 13:05:56;;;;;;;;;;;23.40;29.70;;;22.30;33.15;101420.16;12250617;19;20289;-85
2023/05/09 13:09:59;;;;;;;;;;;23.50;30.90;;;22.21;33.27;101398.88;12252277;19;19929;-85
2023/05/09 13:14:02;;;;;;;;;;;23.60;30.10;;;22.50;32.98;101423.56;12252005;19;20301;-85
2023/05/09 13:18:04;;;;;;;;;;;23.60;29.80;;;22.28;33.04;101392.84;12247518;19;19922;-85
2023/05/09 13:22:06;;;;;;;;;;;23.60;29.80;;;22.48;33.02;101417.56;12248630;19;20400;-85
2023/05/09 13:26:08;;;;;;;;;;;23.60;30.00;;;22.49;32.77;101400.63;12248652;19;19931;-85
2023/05/09 13:30:10;;;;;;;;;;;23.60;28.80;;;22.48;32.63;101382.94;12249113;19;19922;-86
2023/05/09 13:34:11;;;;;;;;;;;23.60;28.60;;;22.50;32.70;101386.31;12250337;19;19927;-85
2023/05/09 13:38:13;;;;;;;;;;;23.60;29.00;;;22.54;32.59;101381.53;12248627;19;20336;-85
2023/05/09 13:42:14;;;;;;;;;;;23.60;29.20;;;22.65;32.68;101391.13;12248826;19;19919;-86
2023/05/09 13:46:16;;;;;;;;;;;23.70;30.70;;;22.58;32.36;101363.44;12255354;19;19918;-85
2023/05/09 13:50:18;;;;;;;;;;;23.70;30.00;;;22.73;32.91;101370.78;12266107;19;20403;-86
2023/05/09 13:54:21;;;;;;;;;;;23.80;30.60;;;22.75;32.71;101346.66;12263282;19;19930;-86
2023/05/09 13:58:23;;;;;;;;;;;23.90;30.00;;;22.87;32.01;101365.94;12264793;19;19958;-85
2023/05/09 14:02:25;;;;;;;;;;;23.90;29.30;;;22.77;32.12;101323.41;12264991;19;19923;-86
2023/05/09 14:06:27;;;;;;;;;;;23.90;29.60;;;22.93;32.22;101342.22;12259974;19;20370;-86
2023/05/09 14:10:29;;;;;;;;;;;23.90;29.70;;;22.92;32.42;101324.53;12261757;19;20401;-86
2023/05/09 14:14:31;;;;;;;;;;;23.90;29.40;;;22.88;32.06;101323.19;12261884;19;19923;-86
2023/05/09 14:18:34;;;;;;;;;;;24.00;29.30;;;22.99;32.16;101322.16;12260742;19;19940;-87
2023/05/09 14:22:35;;;;;;;;;;;24.00;29.70;;;22.97;31.94;101303.66;12264112;19;19927;-85
2023/05/09 14:26:37;;;;;;;;;;;24.00;30.00;;;22.96;32.01;101307.31;12257051;19;20345;-86
2023/05/09 14:30:39;;;;;;;;;;;24.00;29.90;;;23.02;31.94;101303.19;12260556;19;20265;-86
2023/05/09 14:34:41;;;;;;;;;;;24.00;28.70;;;22.99;32.13;101300.00;12261092;19;19914;-86
2023/05/09 14:38:43;;;;;;;;;;;24.00;29.40;;;23.01;31.64;101293.56;12262802;19;19915;-86
2023/05/09 14:42:44;;;;;;;;;;;24.00;29.00;;;22.91;31.82;101264.28;12260772;19;19950;-87
2023/05/09 14:46:47;;;;;;;;;;;23.90;29.60;;;23.02;31.84;101276.56;12258242;19;20339;-87
2023/05/09 14:50:48;;;;;;;;;;;24.00;28.30;;;23.00;32.07;101259.88;12259891;19;19918;-86
2023/05/09 14:54:50;;;;;;;;;;;24.00;29.30;;;22.98;32.00;101256.56;12258775;19;20283;-86
2023/05/09 14:58:51;;;;;;;;;;;24.10;28.80;;;23.01;31.77;101250.91;12255525;19;19926;-86
2023/05/09 15:02:53;;;;;;;;;;;24.00;29.20;;;23.08;31.57;101264.47;12258442;19;20587;-85
2023/05/09 15:06:55;;;;;;;;;;;24.00;29.40;;;23.02;31.37;101243.75;12253632;19;19910;-85
2023/05/09 15:10:57;;;;;;;;;;;24.00;29.00;;;23.08;31.34;101248.47;12260354;19;19915;-86
2023/05/09 15:15:16;;;;;;;;;;;24.00;28.40;;;23.04;31.57;101255.94;12258130;19;19919;-85
2023/05/09 15:19:17;;;;;;;;;;;24.00;29.80;;;23.01;31.69;101229.63;12257996;19;19918;-86
2023/05/09 15:23:19;;;;;;;;;;;24.00;29.60;;;23.01;31.53;101218.09;12258129;19;19919;-86
2023/05/09 15:27:20;;;;;;;;;;;24.00;29.70;;;23.09;31.35;101234.19;12250532;19;19919;-86
2023/05/09 15:31:22;;;;;;;;;;;24.00;28.90;;;22.86;31.50;101191.97;12259846;19;19943;-86
2023/05/09 15:35:24;;;;;;;;;;;24.00;28.90;;;22.75;31.16;101168.25;12261768;19;19921;-86
2023/05/09 15:39:26;;;;;;;;;;;24.00;30.00;;;23.11;31.30;101216.19;12260574;19;19913;-85
2023/05/09 15:43:27;;;;;;;;;;;24.00;29.00;;;23.00;31.23;101193.28;12258298;19;19930;-86
2023/05/09 15:47:28;;;;;;;;;;;24.00;29.00;;;23.08;31.37;101198.69;12257654;19;19933;-86
2023/05/09 15:51:30;;;;;;;;;;;24.00;29.30;;;23.03;31.36;101195.63;12256012;19;20257;-86
2023/05/09 15:55:32;;;;;;;;;;;24.00;29.60;;;23.00;31.02;101182.63;12250512;19;20249;-86
2023/05/09 15:59:33;;;;;;;;;;;24.10;29.00;;;22.90;31.33;101179.19;12254862;19;19933;-86
2023/05/09 16:03:34;;;;;;;;;;;24.00;29.80;;;22.73;31.28;101148.94;12255196;19;19919;-85
2023/05/09 16:07:36;;;;;;;;;;;24.00;29.50;;;22.70;31.10;101143.91;12247970;19;19911;-85
2023/05/09 16:11:37;;;;;;;;;;;23.90;28.00;;;22.79;31.08;101166.97;12247813;19;20392;-85
2023/05/09 16:15:39;;;;;;;;;;;23.90;28.20;;;22.82;31.13;101185.31;12247345;19;19923;-84
2023/05/09 16:19:41;;;;;;;;;;;23.80;29.70;;;22.56;31.01;101139.13;12250501;19;19934;-85
2023/05/09 16:23:42;;;;;;;;;;;23.70;29.60;;;22.71;30.74;101174.84;12251260;19;19906;-85
2023/05/09 16:27:43;;;;;;;;;;;23.70;29.50;;;22.68;31.10;101172.50;12248242;19;19915;-84
2023/05/09 16:31:45;;;;;;;;;;;23.60;29.70;;;22.61;30.80;101166.97;12246226;19;19944;-84
2023/05/09 16:35:46;;;;;;;;;;;23.60;30.00;;;22.60;30.86;101149.34;12245228;19;20298;-86
2023/05/09 16:39:48;;;;;;;;;;;23.60;30.10;;;22.61;31.00;101161.66;12251832;19;19929;-86
2023/05/09 16:43:50;;;;;;;;;;;23.60;30.00;;;22.63;30.96;101164.13;12250377;19;19922;-85
2023/05/09 16:47:54;;;;;;;;;;;23.60;29.70;;;22.52;30.86;101150.09;12242694;19;19919;-85
2023/05/09 16:51:55;;;;;;;;;;;23.50;29.60;;;22.37;30.77;101134.81;12250142;19;19918;-85
2023/05/09 16:55:57;;;;;;;;;;;23.40;29.80;;;22.40;31.05;101151.28;12248605;19;19918;-85
2023/05/09 16:59:58;;;;;;;;;;;23.40;29.70;;;22.37;30.82;101151.59;12250767;19;20354;-85
2023/05/09 17:04:00;;;;;;;;;;;23.30;30.10;;;22.36;30.92;101152.59;12250836;19;19918;-85
2023/05/09 17:08:02;;;;;;;;;;;23.30;30.40;;;22.19;31.13;101127.63;12248878;19;19923;-84
2023/05/09 17:12:03;;;;;;;;;;;23.20;29.20;;;22.17;30.61;101136.72;12242197;19;19915;-84
2023/05/09 17:16:05;;;;;;;;;;;23.10;29.40;;;22.06;31.13;101125.31;12244058;19;19955;-84
2023/05/09 17:20:10;;;;;;;;;;;23.10;30.00;;;21.87;30.68;101101.47;12251671;19;19911;-83
2023/05/09 17:24:12;;;;;;;;;;;23.10;29.80;;;21.79;30.80;101091.63;12260594;19;19937;-83
2023/05/09 17:28:14;;;;;;;;;;;23.00;29.90;;;21.95;30.86;101130.00;12260016;19;20266;-84
2023/05/09 17:32:15;;;;;;;;;;;22.90;29.90;;;21.93;30.74;101131.97;12259265;19;19907;-84
2023/05/09 17:36:17;;;;;;;;;;;22.90;30.50;;;21.60;31.16;101079.25;12257755;19;20313;-83
2023/05/09 17:40:18;;;;;;;;;;;22.80;30.80;;;21.52;31.08;101075.66;12262151;19;19936;-84
2023/05/09 17:44:20;;;;;;;;;;;22.70;30.30;;;21.33;31.22;101065.91;12261123;19;19971;-84
2023/05/09 17:48:21;;;;;;;;;;;22.60;30.60;;;21.69;31.25;101124.56;12260446;19;20349;-84
2023/05/09 17:52:23;;;;;;;;;;;22.60;30.80;;;21.57;30.80;101113.25;12258259;19;19918;-84
2023/05/09 17:56:24;;;;;;;;;;;22.50;30.20;;;21.53;30.96;101118.03;12258859;19;19925;-84
2023/05/09 18:00:26;;;;;;;;;;;22.50;30.50;;;21.50;31.15;101120.16;12259509;19;19987;-84
2023/05/09 18:04:29;;;;;;;;;;;22.40;30.60;;;21.34;31.09;101104.81;12257079;19;19919;-84
2023/05/09 18:08:31;;;;;;;;;;;22.30;30.30;;;21.39;31.33;101114.03;12259262;19;19943;-83
2023/05/09 18:12:34;;;;;;;;;;;22.30;30.80;;;21.27;31.03;101109.00;12260204;19;19935;-84